createdAt,value
2019-03-12T00:00:56.574Z,58.54
2019-03-12T00:03:30.893Z,58.53
2019-03-12T00:06:05.211Z,58.52
2019-03-12T00:08:39.575Z,58.57
2019-03-12T00:11:16.408Z,58.51
2019-03-12T00:13:50.672Z,58.55
2019-03-12T00:16:24.981Z,58.58
2019-03-12T00:18:59.144Z,58.55
2019-03-12T00:21:34.728Z,58.56
2019-03-12T00:24:10.185Z,58.57
2019-03-12T00:26:44.414Z,58.54
2019-03-12T00:29:18.515Z,58.58
2019-03-12T00:31:52.851Z,58.60
2019-03-12T00:34:26.980Z,58.55
2019-03-12T00:37:01.255Z,58.57
2019-03-12T00:39:37.569Z,58.60
2019-03-12T00:42:11.906Z,58.59
2019-03-12T00:44:46.292Z,58.58
2019-03-12T00:47:21.918Z,58.59
2019-03-12T00:49:56.745Z,58.57
2019-03-12T00:52:31.058Z,58.56
2019-03-12T00:55:06.621Z,58.56
2019-03-12T00:57:40.932Z,58.54
2019-03-12T01:00:17.527Z,58.57
2019-03-12T01:02:52.747Z,58.57
2019-03-12T01:05:27.217Z,58.53
2019-03-12T01:08:01.293Z,58.53
2019-03-12T01:10:36.758Z,58.53
2019-03-12T01:13:21.031Z,58.53
2019-03-12T01:15:56.807Z,58.48
2019-03-12T01:18:32.123Z,58.32
2019-03-12T01:21:07.533Z,57.81
2019-03-12T01:23:42.711Z,57.76
2019-03-12T01:26:17.004Z,57.85
2019-03-12T01:28:51.135Z,57.91
2019-03-12T01:31:25.391Z,57.93
2019-03-12T01:33:59.630Z,57.99
2019-03-12T01:36:34.612Z,58.06
2019-03-12T01:39:10.421Z,58.08
2019-03-12T01:41:45.403Z,58.08
2019-03-12T01:44:19.841Z,58.08
2019-03-12T01:46:55.093Z,58.12
2019-03-12T01:49:29.397Z,58.14
2019-03-12T01:52:03.730Z,58.18
2019-03-12T01:54:38.212Z,58.14
2019-03-12T01:57:12.356Z,58.19
2019-03-12T01:59:46.763Z,58.18
2019-03-12T02:02:21.000Z,58.16
2019-03-12T02:04:55.585Z,58.18
2019-03-12T02:07:30.042Z,58.16
2019-03-12T02:10:04.590Z,58.20
2019-03-12T02:12:39.926Z,58.19
2019-03-12T02:15:15.148Z,58.19
2019-03-12T02:17:50.387Z,58.20
2019-03-12T02:20:25.050Z,58.21
2019-03-12T02:22:59.363Z,58.19
2019-03-12T02:25:33.507Z,58.25
2019-03-12T02:28:07.851Z,58.21
2019-03-12T02:30:42.326Z,58.23
2019-03-12T02:33:16.679Z,58.25
2019-03-12T02:35:50.794Z,58.25
2019-03-12T02:38:25.228Z,58.23
2019-03-12T02:40:59.306Z,58.24
2019-03-12T02:43:33.689Z,58.25
2019-03-12T02:46:07.908Z,58.28
2019-03-12T02:48:42.110Z,58.30
2019-03-12T02:51:17.425Z,58.30
2019-03-12T02:53:51.659Z,58.33
2019-03-12T02:56:25.785Z,58.33
2019-03-12T02:59:00.296Z,58.34
2019-03-12T03:01:34.440Z,58.33
2019-03-12T03:04:08.729Z,58.38
2019-03-12T03:06:59.548Z,58.37
2019-03-12T03:09:33.945Z,58.38
2019-03-12T03:12:08.417Z,58.37
2019-03-12T03:14:43.367Z,58.39
2019-03-12T03:17:18.047Z,58.38
2019-03-12T03:19:52.433Z,58.24
2019-03-12T03:22:26.769Z,58.25
2019-03-12T03:25:01.048Z,58.29
2019-03-12T03:27:35.031Z,58.31
2019-03-12T03:30:11.582Z,58.05
2019-03-12T03:32:45.909Z,58.13
2019-03-12T03:35:20.665Z,58.16
2019-03-12T03:37:54.750Z,58.17
2019-03-12T03:40:29.422Z,58.18
2019-03-12T03:43:03.647Z,58.17
2019-03-12T03:45:38.228Z,58.30
2019-03-12T03:48:12.742Z,58.56
2019-03-12T03:50:47.234Z,58.51
2019-03-12T03:53:21.856Z,58.50
2019-03-12T03:55:55.887Z,58.50
2019-03-12T03:58:30.388Z,58.42
2019-03-12T04:01:04.806Z,58.67
2019-03-12T04:03:39.205Z,58.46
2019-03-12T04:06:13.747Z,58.62
2019-03-12T04:08:48.172Z,55.94
2019-03-12T04:11:22.579Z,56.72
2019-03-12T04:13:57.114Z,57.00
2019-03-12T04:16:31.533Z,55.85
2019-03-12T04:19:05.880Z,56.21
2019-03-12T04:21:40.261Z,55.94
2019-03-12T04:24:14.581Z,56.47
2019-03-12T04:26:53.074Z,56.88
2019-03-12T04:29:27.500Z,57.32
2019-03-12T04:32:01.968Z,57.34
2019-03-12T04:34:39.160Z,57.28
2019-03-12T04:37:13.454Z,55.99
2019-03-12T04:39:47.603Z,56.51
2019-03-12T04:42:22.067Z,56.58
2019-03-12T04:44:56.238Z,56.70
2019-03-12T04:47:30.927Z,56.77
2019-03-12T04:50:05.401Z,56.91
2019-03-12T04:52:40.200Z,57.03
2019-03-12T04:55:14.793Z,57.15
2019-03-12T04:57:50.080Z,57.11
2019-03-12T05:00:24.710Z,57.10
2019-03-12T05:02:58.880Z,57.17
2019-03-12T05:05:33.114Z,57.83
2019-03-12T05:08:07.662Z,57.58
2019-03-12T05:10:41.966Z,58.63
2019-03-12T05:13:17.285Z,58.81
2019-03-12T05:15:51.779Z,58.67
2019-03-12T05:18:26.496Z,58.64
2019-03-12T05:21:00.675Z,58.54
2019-03-12T05:23:34.825Z,58.49
2019-03-12T05:26:09.104Z,58.50
2019-03-12T05:28:43.196Z,58.44
2019-03-12T05:31:17.571Z,58.42
2019-03-12T05:33:51.712Z,58.39
2019-03-12T05:36:26.028Z,58.41
2019-03-12T05:39:00.226Z,58.40
2019-03-12T05:41:36.199Z,58.35
2019-03-12T05:44:10.482Z,58.35
2019-03-12T05:46:44.723Z,58.36
2019-03-12T05:49:18.848Z,58.31
2019-03-12T05:51:53.383Z,58.38
2019-03-12T05:54:27.860Z,58.39
2019-03-12T05:57:02.715Z,58.34
2019-03-12T05:59:37.075Z,58.41
2019-03-12T06:02:11.296Z,58.36
2019-03-12T06:04:45.614Z,58.40
2019-03-12T06:07:19.825Z,58.11
2019-03-12T06:09:54.218Z,58.64
2019-03-12T06:12:28.441Z,58.75
2019-03-12T06:15:02.847Z,58.87
2019-03-12T06:17:36.967Z,59.02
2019-03-12T06:20:11.497Z,59.04
2019-03-12T06:22:45.938Z,59.09
2019-03-12T06:25:20.240Z,59.07
2019-03-12T06:27:55.237Z,59.08
2019-03-12T06:30:31.467Z,59.02
2019-03-12T06:33:13.025Z,59.05
2019-03-12T06:36:09.136Z,59.03
2019-03-12T06:39:03.518Z,59.12
2019-03-12T06:41:47.024Z,59.11
2019-03-12T06:44:30.555Z,59.10
2019-03-12T06:47:22.251Z,58.39
2019-03-12T06:50:02.053Z,58.17
2019-03-12T06:52:45.732Z,58.19
2019-03-12T06:55:27.160Z,58.12
2019-03-12T06:58:25.527Z,57.94
2019-03-12T07:01:21.222Z,57.30
2019-03-12T07:04:17.622Z,56.83
2019-03-12T07:07:19.573Z,56.51
2019-03-12T07:10:11.452Z,56.69
2019-03-12T07:13:03.226Z,56.81
2019-03-12T07:15:51.249Z,56.99
2019-03-12T07:18:45.058Z,57.06
2019-03-12T07:21:36.711Z,57.18
2019-03-12T07:24:28.338Z,57.23
2019-03-12T07:27:24.462Z,57.26
2019-03-12T07:30:16.293Z,57.37
2019-03-12T07:33:12.989Z,57.27
2019-03-12T07:36:04.617Z,57.30
2019-03-12T07:38:57.407Z,57.29
2019-03-12T07:41:41.870Z,57.40
2019-03-12T07:44:29.187Z,57.33
2019-03-12T07:47:34.857Z,57.34
2019-03-12T07:50:15.931Z,57.18
2019-03-12T07:53:08.819Z,57.17
2019-03-12T07:56:01.767Z,57.00
2019-03-12T07:58:49.547Z,56.63
2019-03-12T08:01:44.836Z,55.65
2019-03-12T08:04:43.576Z,55.02
2019-03-12T08:07:25.697Z,55.43
2019-03-12T08:10:20.550Z,55.34
2019-03-12T08:13:05.353Z,55.35
2019-03-12T08:15:51.954Z,55.55
2019-03-12T08:18:57.464Z,55.64
2019-03-12T08:21:49.935Z,55.70
2019-03-12T08:24:41.529Z,55.69
2019-03-12T08:27:40.895Z,55.74
2019-03-12T08:30:22.600Z,55.57
2019-03-12T08:33:08.740Z,55.60
2019-03-12T08:35:49.626Z,55.64
2019-03-12T08:38:29.677Z,55.69
2019-03-12T08:41:20.857Z,55.69
2019-03-12T08:44:10.160Z,55.30
2019-03-12T08:47:03.283Z,55.33
2019-03-12T08:49:53.859Z,55.40
2019-03-12T08:52:44.539Z,55.44
2019-03-12T08:55:40.405Z,55.46
2019-03-12T08:58:48.362Z,55.57
2019-03-12T09:01:43.133Z,55.45
2019-03-12T09:04:39.246Z,55.37
2019-03-12T09:07:32.297Z,55.47
2019-03-12T09:10:34.767Z,55.45
2019-03-12T09:13:26.801Z,55.46
2019-03-12T09:16:32.142Z,55.43
2019-03-12T09:19:25.155Z,55.24
2019-03-12T09:22:36.292Z,55.35
2019-03-12T09:25:32.408Z,55.44
2019-03-12T09:28:18.274Z,55.45
2019-03-12T09:31:26.923Z,55.55
2019-03-12T09:34:18.449Z,55.52
2019-03-12T09:37:03.732Z,55.54
2019-03-12T09:39:56.789Z,55.39
2019-03-12T09:42:57.060Z,55.32
2019-03-12T09:45:53.784Z,54.97
2019-03-12T09:48:36.857Z,54.70
2019-03-12T09:51:25.840Z,54.77
2019-03-12T09:54:20.585Z,54.87
2019-03-12T09:57:08.475Z,54.92
2019-03-12T10:00:15.563Z,54.91
2019-03-12T10:03:03.991Z,54.95
2019-03-12T10:05:55.558Z,54.95
2019-03-12T10:09:00.706Z,54.95
2019-03-12T10:11:59.512Z,55.09
2019-03-12T10:14:52.617Z,55.04
2019-03-12T10:17:45.663Z,55.06
2019-03-12T10:20:57.147Z,55.12
2019-03-12T10:23:48.564Z,55.10
2019-03-12T10:26:47.722Z,55.16
2019-03-12T10:29:49.788Z,55.10
2019-03-12T10:32:38.151Z,55.14
2019-03-12T10:35:38.671Z,55.16
2019-03-12T10:39:15.234Z,55.19
2019-03-12T10:41:54.597Z,55.19
2019-03-12T10:44:49.224Z,55.14
2019-03-12T10:47:24.611Z,55.11
2019-03-12T10:49:59.291Z,55.18
2019-03-12T10:52:33.458Z,55.20
2019-03-12T10:55:13.558Z,55.21
2019-03-12T10:57:45.006Z,55.18
2019-03-12T11:00:20.958Z,55.21
2019-03-12T11:02:55.420Z,55.24
2019-03-12T11:05:29.517Z,55.26
2019-03-12T11:08:06.710Z,55.24
2019-03-12T11:10:39.928Z,55.34
2019-03-12T11:13:15.201Z,55.30
2019-03-12T11:15:50.987Z,55.31
2019-03-12T11:18:26.433Z,55.37
2019-03-12T11:21:01.860Z,55.39
2019-03-12T11:23:37.211Z,55.40
2019-03-12T11:26:11.381Z,55.50
2019-03-12T11:28:46.607Z,55.51
2019-03-12T11:31:21.327Z,55.54
2019-03-12T11:33:55.813Z,55.58
2019-03-12T11:36:31.357Z,55.58
2019-03-12T11:39:06.123Z,55.54
2019-03-12T11:41:41.969Z,55.60
2019-03-12T11:44:16.769Z,55.81
2019-03-12T11:46:51.001Z,55.82
2019-03-12T11:49:25.417Z,55.92
2019-03-12T11:51:59.725Z,55.89
2019-03-12T11:54:34.047Z,55.85
2019-03-12T11:57:08.264Z,55.94
2019-03-12T11:59:42.662Z,55.90
2019-03-12T12:02:17.004Z,55.97
2019-03-12T12:04:51.388Z,55.96
2019-03-12T12:07:27.029Z,56.00
2019-03-12T12:10:01.893Z,56.00
2019-03-12T12:12:40.239Z,56.06
2019-03-12T12:15:15.086Z,56.03
2019-03-12T12:17:49.843Z,56.15
2019-03-12T12:20:29.946Z,56.11
2019-03-12T12:23:01.537Z,56.20
2019-03-12T12:25:36.820Z,56.24
2019-03-12T12:28:11.426Z,56.25
2019-03-12T12:30:45.896Z,56.33
2019-03-12T12:33:20.635Z,56.30
2019-03-12T12:35:54.872Z,56.50
2019-03-12T12:38:29.442Z,56.71
2019-03-12T12:41:03.582Z,56.51
2019-03-12T12:43:38.203Z,56.37
2019-03-12T12:46:15.686Z,56.55
2019-03-12T12:48:53.183Z,56.57
2019-03-12T12:51:27.063Z,56.61
2019-03-12T12:54:01.692Z,56.43
2019-03-12T12:56:36.069Z,56.42
2019-03-12T12:59:11.617Z,56.50
2019-03-12T13:01:46.059Z,56.55
2019-03-12T13:04:22.486Z,56.53
2019-03-12T13:06:57.702Z,56.58
2019-03-12T13:09:32.082Z,56.57
2019-03-12T13:12:06.608Z,56.55
2019-03-12T13:14:41.837Z,56.64
2019-03-12T13:17:16.783Z,56.64
2019-03-12T13:19:53.773Z,56.75
2019-03-12T13:22:28.442Z,56.80
2019-03-12T13:25:03.153Z,56.83
2019-03-12T13:27:42.505Z,56.54
2019-03-12T13:30:16.478Z,56.51
2019-03-12T13:32:50.857Z,56.62
2019-03-12T13:35:25.211Z,56.79
2019-03-12T13:37:59.637Z,56.99
2019-03-12T13:40:34.367Z,56.47
2019-03-12T13:43:08.723Z,56.44
2019-03-12T13:45:43.001Z,57.21
2019-03-12T13:48:17.393Z,57.93
2019-03-12T13:50:51.925Z,58.33
2019-03-12T13:53:26.716Z,58.43
2019-03-12T13:56:02.658Z,58.44
2019-03-12T13:58:37.407Z,58.63
2019-03-12T14:01:12.092Z,58.01
2019-03-12T14:03:47.297Z,58.14
2019-03-12T14:06:22.045Z,58.51
2019-03-12T14:08:56.636Z,59.65
2019-03-12T14:11:31.164Z,60.24
2019-03-12T14:14:05.750Z,59.87
2019-03-12T14:16:40.385Z,59.97
2019-03-12T14:19:14.655Z,59.95
2019-03-12T14:21:49.466Z,59.70
2019-03-12T14:24:24.072Z,59.61
2019-03-12T14:26:58.717Z,59.57
2019-03-12T14:29:33.196Z,59.49
2019-03-12T14:32:07.890Z,59.52
2019-03-12T14:34:42.481Z,59.43
2019-03-12T14:37:17.017Z,59.43
2019-03-12T14:39:51.598Z,59.43
2019-03-12T14:42:26.231Z,59.40
2019-03-12T14:45:01.971Z,59.40
2019-03-12T14:47:37.892Z,59.31
2019-03-12T14:50:14.311Z,59.38
2019-03-12T14:52:51.391Z,59.40
2019-03-12T14:55:26.036Z,59.40
2019-03-12T14:58:00.487Z,59.40
2019-03-12T15:00:35.055Z,59.37
2019-03-12T15:03:09.713Z,59.37
2019-03-12T15:05:44.353Z,59.37
2019-03-12T15:08:18.566Z,59.38
2019-03-12T15:10:53.081Z,59.34
2019-03-12T15:13:27.584Z,59.40
2019-03-12T15:16:02.086Z,59.35
2019-03-12T15:22:17.627Z,59.32
2019-03-12T15:24:52.038Z,59.18
2019-03-12T15:27:27.853Z,59.14
2019-03-12T15:30:02.252Z,59.15
2019-03-12T15:32:37.857Z,59.19
2019-03-12T15:35:12.486Z,59.13
2019-03-12T15:37:46.878Z,59.08
2019-03-12T15:40:21.485Z,59.09
2019-03-12T15:42:56.630Z,58.93
2019-03-12T15:45:31.267Z,58.78
2019-03-12T15:48:06.183Z,58.34
2019-03-12T15:50:40.662Z,58.33
2019-03-12T15:53:15.232Z,58.40
2019-03-12T15:55:49.803Z,58.31
2019-03-12T15:58:24.053Z,58.25
2019-03-12T16:00:58.540Z,58.21
2019-03-12T16:03:33.176Z,58.28
2019-03-12T16:06:07.826Z,58.18
2019-03-12T16:08:42.591Z,58.09
2019-03-12T16:11:16.960Z,58.08
2019-03-12T16:13:51.515Z,58.03
2019-03-12T16:16:26.146Z,57.96
2019-03-12T16:19:00.925Z,57.94
2019-03-12T16:21:35.230Z,57.84
2019-03-12T16:24:09.828Z,57.49
2019-03-12T16:26:44.519Z,57.54
2019-03-12T16:29:19.046Z,57.60
2019-03-12T16:31:53.784Z,57.63
2019-03-12T16:34:29.179Z,57.57
2019-03-12T16:37:03.475Z,57.59
2019-03-12T16:39:37.925Z,57.56
2019-03-12T16:42:13.074Z,57.46
2019-03-12T16:44:48.426Z,57.32
2019-03-12T16:47:22.564Z,57.39
2019-03-12T16:49:56.874Z,57.40
2019-03-12T16:52:31.363Z,57.40
2019-03-12T16:55:05.809Z,57.41
2019-03-12T16:57:40.229Z,57.45
2019-03-12T17:00:15.702Z,57.32
2019-03-12T17:02:50.302Z,57.19
2019-03-12T17:05:26.445Z,57.18
2019-03-12T17:08:01.454Z,57.27
2019-03-12T17:10:36.123Z,57.25
2019-03-12T17:13:11.993Z,57.23
2019-03-12T17:15:46.584Z,57.19
2019-03-12T17:18:22.518Z,57.25
2019-03-12T17:20:56.973Z,57.17
2019-03-12T17:23:31.384Z,57.14
2019-03-12T17:26:06.009Z,57.07
2019-03-12T17:28:40.630Z,56.99
2019-03-12T17:31:15.250Z,56.98
2019-03-12T17:33:49.768Z,56.96
2019-03-12T17:36:24.015Z,56.91
2019-03-12T17:38:58.513Z,56.89
2019-03-12T17:41:32.972Z,56.87
2019-03-12T17:44:07.740Z,56.84
2019-03-12T17:46:42.517Z,56.79
2019-03-12T17:49:17.188Z,56.78
2019-03-12T17:51:51.752Z,56.37
2019-03-12T17:54:26.456Z,56.34
2019-03-12T17:57:00.917Z,56.32
2019-03-12T17:59:35.485Z,56.32
2019-03-12T18:02:10.296Z,56.32
2019-03-12T18:04:44.733Z,56.18
2019-03-12T18:07:19.184Z,56.07
2019-03-12T18:09:54.802Z,56.07
2019-03-12T18:12:29.434Z,56.37
2019-03-12T18:15:03.753Z,56.42
2019-03-12T18:17:38.254Z,56.49
2019-03-12T18:20:14.582Z,56.46
2019-03-12T18:22:48.954Z,56.48
2019-03-12T18:25:25.206Z,56.54
2019-03-12T18:27:59.826Z,56.63
2019-03-12T18:30:34.292Z,56.66
2019-03-12T18:33:08.576Z,56.63
2019-03-12T18:35:43.141Z,56.70
2019-03-12T18:38:17.610Z,56.78
2019-03-12T18:40:51.867Z,56.88
2019-03-12T18:43:26.159Z,56.88
2019-03-12T18:46:00.443Z,56.87
2019-03-12T18:48:34.650Z,56.86
2019-03-12T18:51:09.104Z,56.91
2019-03-12T18:53:43.414Z,56.93
2019-03-12T18:56:17.692Z,56.96
2019-03-12T18:58:51.983Z,57.03
2019-03-12T19:01:26.590Z,57.01
2019-03-12T19:04:01.030Z,56.97
2019-03-12T19:06:35.590Z,57.08
2019-03-12T19:09:10.908Z,57.02
2019-03-12T19:11:48.421Z,57.13
2019-03-12T19:14:22.162Z,57.14
2019-03-12T19:16:56.754Z,57.17
2019-03-12T19:19:31.016Z,57.19
2019-03-12T19:22:05.494Z,57.23
2019-03-12T19:24:39.965Z,57.26
2019-03-12T19:27:14.365Z,57.28
2019-03-12T19:29:48.728Z,57.23
2019-03-12T19:32:29.366Z,57.27
2019-03-12T19:35:03.813Z,57.27
2019-03-12T19:37:38.039Z,57.22
2019-03-12T19:40:15.554Z,57.19
2019-03-12T19:42:49.897Z,57.20
2019-03-12T19:45:24.470Z,57.20
2019-03-12T19:47:58.848Z,57.27
2019-03-12T19:50:33.512Z,57.29
2019-03-12T19:53:07.992Z,57.33
2019-03-12T19:55:44.732Z,57.29
2019-03-12T19:58:18.936Z,57.26
2019-03-12T20:00:54.205Z,57.19
2019-03-12T20:03:28.791Z,57.15
2019-03-12T20:06:03.365Z,57.27
2019-03-12T20:08:37.599Z,57.26
2019-03-12T20:11:38.306Z,57.32
2019-03-12T20:15:10.247Z,57.37
2019-03-12T20:18:31.994Z,57.39
2019-03-12T20:22:00.040Z,57.44
2019-03-12T20:25:09.124Z,57.45
2019-03-12T20:28:32.577Z,57.46
2019-03-12T20:31:49.223Z,57.44
2019-03-12T20:34:51.153Z,57.47
2019-03-12T20:37:59.710Z,57.49
2019-03-12T20:41:07.321Z,57.46
2019-03-12T20:44:32.494Z,57.47
2019-03-12T20:47:40.332Z,57.45
2019-03-12T20:51:08.373Z,57.46
2019-03-12T20:54:19.295Z,57.47
2019-03-12T20:57:31.751Z,57.50
2019-03-12T21:00:43.227Z,57.49
2019-03-12T21:03:45.101Z,57.56
2019-03-12T21:06:54.385Z,57.59
2019-03-12T21:10:16.069Z,57.64
2019-03-12T21:13:27.188Z,57.68
2019-03-12T21:16:35.357Z,57.75
2019-03-12T21:20:03.102Z,57.75
2019-03-12T21:22:48.602Z,57.77
2019-03-12T21:25:58.971Z,57.78
2019-03-12T21:29:02.129Z,57.76
2019-03-12T21:31:36.614Z,57.77
2019-03-12T21:34:10.965Z,57.74
2019-03-12T21:36:45.309Z,57.79
2019-03-12T21:39:19.912Z,57.78
2019-03-12T21:41:54.492Z,57.81
2019-03-12T21:44:29.520Z,57.76
2019-03-12T21:47:04.187Z,57.80
2019-03-12T21:49:38.652Z,57.79
2019-03-12T21:52:13.477Z,57.77
2019-03-12T21:54:48.036Z,57.84
2019-03-12T21:57:22.542Z,57.83
2019-03-12T21:59:57.349Z,57.77
2019-03-12T22:02:31.585Z,57.83
2019-03-12T22:05:05.968Z,57.82
2019-03-12T22:07:40.471Z,57.85
2019-03-12T22:10:14.900Z,57.81
2019-03-12T22:12:49.344Z,57.82
2019-03-12T22:15:23.723Z,57.82
2019-03-12T22:17:58.391Z,57.82
2019-03-12T22:20:32.791Z,57.80
2019-03-12T22:23:17.202Z,57.77
2019-03-12T22:25:51.743Z,57.74
2019-03-12T22:28:26.232Z,57.78
2019-03-12T22:31:00.574Z,57.77
2019-03-12T22:33:34.943Z,57.77
2019-03-12T22:36:09.291Z,57.79
2019-03-12T22:38:43.650Z,57.78
2019-03-12T22:41:18.003Z,57.74
2019-03-12T22:43:52.414Z,57.76
2019-03-12T22:46:26.825Z,57.77
2019-03-12T22:49:01.067Z,57.76
2019-03-12T22:51:36.597Z,57.76
2019-03-12T22:54:10.943Z,57.75
2019-03-12T22:56:45.132Z,57.70
2019-03-12T22:59:20.922Z,57.73
2019-03-12T23:02:12.501Z,57.72
2019-03-12T23:05:04.388Z,57.66
2019-03-12T23:07:56.286Z,57.69
2019-03-12T23:10:32.611Z,57.64
2019-03-12T23:13:07.296Z,57.60
2019-03-12T23:15:43.057Z,57.65
2019-03-12T23:18:17.478Z,57.64
2019-03-12T23:20:52.010Z,57.65
2019-03-12T23:23:26.357Z,57.64
2019-03-12T23:26:00.671Z,57.63
2019-03-12T23:28:35.499Z,57.59
2019-03-12T23:31:09.995Z,57.61
2019-03-12T23:33:44.492Z,57.57
2019-03-12T23:36:18.640Z,57.62
2019-03-12T23:38:53.076Z,57.58
2019-03-12T23:41:27.517Z,57.58
2019-03-12T23:44:01.904Z,57.55
2019-03-12T23:46:36.373Z,57.60
2019-03-12T23:49:10.669Z,57.57
2019-03-12T23:51:45.166Z,57.55
2019-03-12T23:54:19.235Z,57.54
2019-03-12T23:56:53.631Z,57.54
2019-03-12T23:59:27.713Z,57.56
